Wetterdaten: Dienstag, 25.05.2010
Datum Zeit Temp. A. Feuchte A. Luftdruck Regen Wind Richtung Richtung Sonnenschein UV Solar Windben
25.05.2010 00:00 14,4 C 81 % 1010,0 hPa 0,0 mm 0,0 km/h (0 Bft) N 360 0 min 0 UV-I 0 W/m 4,8 km/h (1 Bft)
25.05.2010 00:10 14,4 C 81 % 1010,0 hPa 0,0 mm 0,0 km/h (0 Bft) N 360 0 min 0 UV-I 0 W/m 4,8 km/h (1 Bft)
25.05.2010 00:20 14,2 C 82 % 1010,1 hPa 0,0 mm 0,0 km/h (0 Bft) N 360 0 min 0 UV-I 0 W/m 1,6 km/h (1 Bft)
25.05.2010 00:30 13,9 C 83 % 1010,1 hPa 0,0 mm 0,0 km/h (0 Bft) N 360 0 min 0 UV-I 0 W/m 3,2 km/h (1 Bft)
25.05.2010 00:40 13,8 C 83 % 1010,1 hPa 0,0 mm 0,0 km/h (0 Bft) N 360 0 min 0 UV-I 0 W/m 4,8 km/h (1 Bft)
25.05.2010 00:50 13,7 C 83 % 1010,1 hPa 0,0 mm 0,0 km/h (0 Bft) N-NW 337 0 min 0 UV-I 0 W/m 6,4 km/h (2 Bft)
25.05.2010 01:00 13,7 C 82 % 1010,2 hPa 0,0 mm 0,0 km/h (0 Bft) N-NO 22 0 min 0 UV-I 0 W/m 6,4 km/h (2 Bft)
25.05.2010 01:10 13,7 C 82 % 1010,2 hPa 0,0 mm 0,0 km/h (0 Bft) N-NO 22 0 min 0 UV-I 0 W/m 4,8 km/h (1 Bft)
25.05.2010 01:20 13,6 C 82 % 1010,2 hPa 0,0 mm 1,6 km/h (1 Bft) NW 315 0 min 0 UV-I 0 W/m 8,0 km/h (2 Bft)
25.05.2010 01:30 13,4 C 81 % 1010,2 hPa 0,0 mm 1,6 km/h (1 Bft) N-NW 337 0 min 0 UV-I 0 W/m 9,7 km/h (2 Bft)
25.05.2010 01:40 13,4 C 81 % 1010,2 hPa 0,0 mm 0,0 km/h (0 Bft) N 360 0 min 0 UV-I 0 W/m 4,8 km/h (1 Bft)
25.05.2010 01:50 13,4 C 81 % 1010,4 hPa 0,0 mm 1,6 km/h (1 Bft) N-NO 22 0 min 0 UV-I 0 W/m 4,8 km/h (1 Bft)
25.05.2010 02:00 13,3 C 81 % 1010,3 hPa 0,0 mm 0,0 km/h (0 Bft) N 360 0 min 0 UV-I 0 W/m 4,8 km/h (1 Bft)
25.05.2010 02:10 13,3 C 81 % 1010,4 hPa 0,0 mm 0,0 km/h (0 Bft) N 360 0 min 0 UV-I 0 W/m 4,8 km/h (1 Bft)
25.05.2010 02:20 13,2 C 81 % 1010,3 hPa 0,0 mm 0,0 km/h (0 Bft) N 360 0 min 0 UV-I 0 W/m 3,2 km/h (1 Bft)
25.05.2010 02:30 13,2 C 81 % 1010,2 hPa 0,0 mm 0,0 km/h (0 Bft) N 360 0 min 0 UV-I 0 W/m 3,2 km/h (1 Bft)
25.05.2010 02:40 13,2 C 81 % 1010,3 hPa 0,0 mm 0,0 km/h (0 Bft) N 360 0 min 0 UV-I 0 W/m 1,6 km/h (1 Bft)
25.05.2010 02:50 13,1 C 81 % 1010,3 hPa 0,0 mm 0,0 km/h (0 Bft) N 360 0 min 0 UV-I 0 W/m 3,2 km/h (1 Bft)
25.05.2010 03:00 12,9 C 81 % 1010,3 hPa 0,0 mm 0,0 km/h (0 Bft) N 360 0 min 0 UV-I 0 W/m 3,2 km/h (1 Bft)
25.05.2010 03:10 12,9 C 81 % 1010,4 hPa 0,0 mm 0,0 km/h (0 Bft) N 360 0 min 0 UV-I 0 W/m 4,8 km/h (1 Bft)
25.05.2010 03:20 12,8 C 81 % 1010,4 hPa 0,0 mm 0,0 km/h (0 Bft) W 270 0 min 0 UV-I 0 W/m 6,4 km/h (2 Bft)
25.05.2010 03:30 12,8 C 80 % 1010,3 hPa 0,0 mm 0,0 km/h (0 Bft) W 270 0 min 0 UV-I 0 W/m 4,8 km/h (1 Bft)
25.05.2010 03:40 12,7 C 79 % 1010,2 hPa 0,0 mm 0,0 km/h (0 Bft) W 270 0 min 0 UV-I 0 W/m 4,8 km/h (1 Bft)
25.05.2010 03:50 12,5 C 80 % 1010,4 hPa 0,0 mm 0,0 km/h (0 Bft) W 270 0 min 0 UV-I 0 W/m 3,2 km/h (1 Bft)
25.05.2010 04:00 12,4 C 81 % 1010,3 hPa 0,0 mm 0,0 km/h (0 Bft) W 270 0 min 0 UV-I 0 W/m 3,2 km/h (1 Bft)
25.05.2010 04:10 12,4 C 81 % 1010,3 hPa 0,0 mm 0,0 km/h (0 Bft) W 270 0 min 0 UV-I 0 W/m 4,8 km/h (1 Bft)
25.05.2010 04:20 12,3 C 81 % 1010,2 hPa 0,0 mm 0,0 km/h (0 Bft) W 270 0 min 0 UV-I 0 W/m 3,2 km/h (1 Bft)
25.05.2010 04:30 12,3 C 82 % 1010,3 hPa 0,0 mm 1,6 km/h (1 Bft) W-SW 247 0 min 0 UV-I 0 W/m 8,0 km/h (2 Bft)
25.05.2010 04:40 12,2 C 83 % 1010,3 hPa 0,0 mm 1,6 km/h (1 Bft) W-SW 247 0 min 0 UV-I 0 W/m 6,4 km/h (2 Bft)
25.05.2010 04:50 12,2 C 84 % 1010,3 hPa 0,0 mm 1,6 km/h (1 Bft) W-SW 247 0 min 0 UV-I 0 W/m 9,7 km/h (2 Bft)
25.05.2010 05:00 12,3 C 84 % 1010,4 hPa 0,0 mm 1,6 km/h (1 Bft) W 270 0 min 0 UV-I 0 W/m 6,4 km/h (2 Bft)
25.05.2010 05:10 12,2 C 84 % 1010,5 hPa 0,0 mm 1,6 km/h (1 Bft) N-NW 337 0 min 0 UV-I 0 W/m 8,0 km/h (2 Bft)
25.05.2010 05:20 12,2 C 83 % 1010,5 hPa 0,0 mm 1,6 km/h (1 Bft) W-NW 292 0 min 0 UV-I 0 W/m 8,0 km/h (2 Bft)
25.05.2010 05:30 12,1 C 83 % 1010,4 hPa 0,0 mm 3,2 km/h (1 Bft) W-NW 292 0 min 0 UV-I 5 W/m 11,3 km/h (2 Bft)
25.05.2010 05:40 11,9 C 83 % 1010,4 hPa 0,0 mm 4,8 km/h (1 Bft) W 270 0 min 0 UV-I 11 W/m 14,5 km/h (3 Bft)
25.05.2010 05:50 11,7 C 84 % 1010,5 hPa 0,0 mm 1,6 km/h (1 Bft) W-NW 292 0 min 0 UV-I 14 W/m 9,7 km/h (2 Bft)
25.05.2010 06:00 11,5 C 85 % 1010,6 hPa 0,0 mm 1,6 km/h (1 Bft) W-NW 292 0 min 0 UV-I 18 W/m 8,0 km/h (2 Bft)
25.05.2010 06:10 11,3 C 86 % 1010,5 hPa 0,0 mm 0,0 km/h (0 Bft) W-NW 292 0 min 0 UV-I 28 W/m 4,8 km/h (1 Bft)
25.05.2010 06:20 11,2 C 86 % 1010,8 hPa 0,0 mm 0,0 km/h (0 Bft) W-NW 292 0 min 0 UV-I 42 W/m 6,4 km/h (2 Bft)
25.05.2010 06:30 11,2 C 86 % 1010,8 hPa 0,0 mm 1,6 km/h (1 Bft) W-NW 292 0 min 0 UV-I 67 W/m 8,0 km/h (2 Bft)
25.05.2010 06:40 11,2 C 86 % 1010,9 hPa 0,0 mm 3,2 km/h (1 Bft) W-NW 292 0 min 0 UV-I 91 W/m 8,0 km/h (2 Bft)
25.05.2010 06:50 11,3 C 85 % 1010,9 hPa 0,0 mm 1,6 km/h (1 Bft) NW 315 0 min 0 UV-I 63 W/m 8,0 km/h (2 Bft)
25.05.2010 07:00 11,3 C 84 % 1011,0 hPa 0,0 mm 3,2 km/h (1 Bft) W-NW 292 10 min 0 UV-I 151 W/m 16,1 km/h (3 Bft)
25.05.2010 07:10 11,4 C 82 % 1011,1 hPa 0,0 mm 3,2 km/h (1 Bft) W-NW 292 10 min 0 UV-I 142 W/m 14,5 km/h (3 Bft)
25.05.2010 07:20 11,6 C 81 % 1011,1 hPa 0,0 mm 3,2 km/h (1 Bft) W-NW 292 0 min 0 UV-I 107 W/m 14,5 km/h (3 Bft)
25.05.2010 07:30 11,7 C 81 % 1011,1 hPa 0,0 mm 4,8 km/h (1 Bft) W-NW 292 0 min 1 UV-I 123 W/m 14,5 km/h (3 Bft)
25.05.2010 07:40 11,7 C 82 % 1011,2 hPa 0,0 mm 3,2 km/h (1 Bft) W-NW 292 0 min 1 UV-I 130 W/m 11,3 km/h (2 Bft)
25.05.2010 07:50 11,8 C 82 % 1011,2 hPa 0,0 mm 1,6 km/h (1 Bft) W 270 10 min 1 UV-I 281 W/m 6,4 km/h (2 Bft)
25.05.2010 08:00 12,3 C 80 % 1011,3 hPa 0,0 mm 4,6 km/h (1 Bft) N-NO 13 10 min 1 UV-I 324 W/m 9,7 km/h (2 Bft)
25.05.2010 08:10 12,3 C 79 % 1011,3 hPa 0,0 mm 1,6 km/h (1 Bft) W-NW 292 10 min 1 UV-I 360 W/m 9,7 km/h (2 Bft)
25.05.2010 08:20 12,3 C 77 % 1011,3 hPa 0,0 mm 3,2 km/h (1 Bft) W-NW 292 10 min 1 UV-I 334 W/m 12,9 km/h (3 Bft)
25.05.2010 08:30 12,2 C 77 % 1011,5 hPa 0,0 mm 3,2 km/h (1 Bft) W-NW 292 10 min 2 UV-I 452 W/m 11,3 km/h (2 Bft)
25.05.2010 08:40 12,5 C 75 % 1011,5 hPa 0,0 mm 3,2 km/h (1 Bft) NW 315 10 min 2 UV-I 568 W/m 9,7 km/h (2 Bft)
25.05.2010 08:50 12,9 C 74 % 1011,6 hPa 0,0 mm 4,8 km/h (1 Bft) W 270 10 min 2 UV-I 538 W/m 16,1 km/h (3 Bft)
25.05.2010 09:00 12,7 C 73 % 1011,6 hPa 0,0 mm 4,8 km/h (1 Bft) W 270 0 min 2 UV-I 155 W/m 11,3 km/h (2 Bft)
25.05.2010 09:10 12,4 C 74 % 1011,6 hPa 0,0 mm 3,2 km/h (1 Bft) W-NW 292 10 min 3 UV-I 543 W/m 9,7 km/h (2 Bft)
25.05.2010 09:20 13,1 C 70 % 1011,6 hPa 0,0 mm 3,2 km/h (1 Bft) NW 315 10 min 3 UV-I 663 W/m 11,3 km/h (2 Bft)
25.05.2010 09:30 13,7 C 65 % 1011,5 hPa 0,0 mm 4,8 km/h (1 Bft) W 270 10 min 3 UV-I 696 W/m 14,5 km/h (3 Bft)
25.05.2010 09:40 13,8 C 65 % 1011,5 hPa 0,0 mm 3,2 km/h (1 Bft) W 270 10 min 3 UV-I 643 W/m 19,3 km/h (3 Bft)
25.05.2010 09:50 14,1 C 66 % 1011,5 hPa 0,0 mm 4,8 km/h (1 Bft) W 270 10 min 4 UV-I 735 W/m 16,1 km/h (3 Bft)
25.05.2010 10:00 13,8 C 67 % 1011,7 hPa 0,0 mm 3,2 km/h (1 Bft) W 270 10 min 4 UV-I 752 W/m 14,5 km/h (3 Bft)
25.05.2010 10:10 14,2 C 61 % 1011,8 hPa 0,0 mm 4,8 km/h (1 Bft) NW 315 10 min 4 UV-I 729 W/m 16,1 km/h (3 Bft)
25.05.2010 10:20 14,6 C 61 % 1011,7 hPa 0,0 mm 4,8 km/h (1 Bft) W-NW 292 10 min 4 UV-I 788 W/m 11,3 km/h (2 Bft)
25.05.2010 10:30 14,7 C 61 % 1011,8 hPa 0,0 mm 4,8 km/h (1 Bft) W 270 10 min 5 UV-I 826 W/m 19,3 km/h (3 Bft)
25.05.2010 10:40 14,7 C 59 % 1011,9 hPa 0,0 mm 6,4 km/h (2 Bft) W-NW 292 10 min 5 UV-I 893 W/m 20,9 km/h (4 Bft)
25.05.2010 10:50 14,7 C 59 % 1011,9 hPa 0,0 mm 4,8 km/h (1 Bft) W-NW 292 10 min 5 UV-I 937 W/m 16,1 km/h (3 Bft)
25.05.2010 11:00 14,7 C 61 % 1011,9 hPa 0,0 mm 4,8 km/h (1 Bft) W 270 10 min 6 UV-I 909 W/m 16,1 km/h (3 Bft)
25.05.2010 11:10 15,0 C 59 % 1012,0 hPa 0,0 mm 3,2 km/h (1 Bft) W-NW 292 10 min 6 UV-I 814 W/m 14,5 km/h (3 Bft)
25.05.2010 11:20 15,0 C 59 % 1012,1 hPa 0,0 mm 4,8 km/h (1 Bft) W 270 10 min 6 UV-I 865 W/m 14,5 km/h (3 Bft)
25.05.2010 11:30 15,1 C 59 % 1012,1 hPa 0,0 mm 6,4 km/h (2 Bft) NW 315 10 min 6 UV-I 911 W/m 17,7 km/h (3 Bft)
25.05.2010 11:40 15,1 C 57 % 1012,1 hPa 0,0 mm 4,8 km/h (1 Bft) W-NW 292 10 min 6 UV-I 926 W/m 14,5 km/h (3 Bft)
25.05.2010 11:50 15,4 C 55 % 1012,0 hPa 0,0 mm 4,8 km/h (1 Bft) W-SW 247 10 min 6 UV-I 861 W/m 20,9 km/h (4 Bft)
25.05.2010 12:00 15,9 C 55 % 1011,9 hPa 0,0 mm 6,4 km/h (2 Bft) W-NW 292 10 min 7 UV-I 893 W/m 17,7 km/h (3 Bft)
25.05.2010 12:10 15,9 C 57 % 1011,9 hPa 0,0 mm 3,2 km/h (1 Bft) W 270 10 min 7 UV-I 946 W/m 17,7 km/h (3 Bft)
25.05.2010 12:20 16,2 C 55 % 1011,9 hPa 0,0 mm 4,8 km/h (1 Bft) NW 315 10 min 7 UV-I 909 W/m 16,1 km/h (3 Bft)
25.05.2010 12:30 16,4 C 53 % 1011,8 hPa 0,0 mm 4,8 km/h (1 Bft) W 270 10 min 7 UV-I 960 W/m 22,5 km/h (4 Bft)
25.05.2010 12:40 16,6 C 52 % 1011,8 hPa 0,0 mm 6,4 km/h (2 Bft) W 270 10 min 7 UV-I 958 W/m 16,1 km/h (3 Bft)
25.05.2010 12:50 16,8 C 51 % 1011,6 hPa 0,0 mm 4,8 km/h (1 Bft) NW 315 10 min 7 UV-I 979 W/m 16,1 km/h (3 Bft)
25.05.2010 13:00 16,9 C 53 % 1011,6 hPa 0,0 mm 3,2 km/h (1 Bft) NW 315 10 min 7 UV-I 960 W/m 11,3 km/h (2 Bft)
25.05.2010 13:10 17,2 C 51 % 1011,8 hPa 0,0 mm 4,8 km/h (1 Bft) W-NW 292 10 min 7 UV-I 1005 W/m 11,3 km/h (2 Bft)
25.05.2010 13:20 17,3 C 51 % 1011,7 hPa 0,0 mm 6,4 km/h (2 Bft) W 270 10 min 8 UV-I 986 W/m 17,7 km/h (3 Bft)
25.05.2010 13:30 17,6 C 52 % 1011,6 hPa 0,0 mm 4,8 km/h (1 Bft) W-NW 292 10 min 8 UV-I 1039 W/m 14,5 km/h (3 Bft)
25.05.2010 13:40 17,2 C 51 % 1011,6 hPa 0,0 mm 4,8 km/h (1 Bft) W-NW 292 10 min 8 UV-I 1118 W/m 20,9 km/h (4 Bft)
25.05.2010 13:50 17,3 C 52 % 1011,6 hPa 0,0 mm 4,8 km/h (1 Bft) NW 315 10 min 8 UV-I 1088 W/m 16,1 km/h (3 Bft)
25.05.2010 14:00 17,9 C 49 % 1011,6 hPa 0,0 mm 9,7 km/h (2 Bft) W 270 10 min 8 UV-I 1093 W/m 19,3 km/h (3 Bft)
25.05.2010 14:10 18,2 C 50 % 1011,5 hPa 0,0 mm 6,4 km/h (2 Bft) W-NW 292 10 min 8 UV-I 1067 W/m 19,3 km/h (3 Bft)
25.05.2010 14:20 18,0 C 48 % 1011,5 hPa 0,0 mm 8,0 km/h (2 Bft) W 270 10 min 7 UV-I 1090 W/m 27,4 km/h (4 Bft)
25.05.2010 14:30 18,1 C 49 % 1011,5 hPa 0,0 mm 6,4 km/h (2 Bft) W 270 10 min 7 UV-I 1078 W/m 17,7 km/h (3 Bft)
25.05.2010 14:40 18,7 C 48 % 1011,5 hPa 0,0 mm 4,8 km/h (1 Bft) NW 315 10 min 7 UV-I 1074 W/m 17,7 km/h (3 Bft)
25.05.2010 14:50 18,9 C 45 % 1011,5 hPa 0,0 mm 4,8 km/h (1 Bft) W-NW 292 10 min 7 UV-I 1095 W/m 11,3 km/h (2 Bft)
25.05.2010 15:00 18,1 C 49 % 1011,4 hPa 0,0 mm 6,4 km/h (2 Bft) NW 315 10 min 6 UV-I 983 W/m 20,9 km/h (4 Bft)
25.05.2010 15:10 18,3 C 47 % 1011,3 hPa 0,0 mm 6,4 km/h (2 Bft) W-NW 292 10 min 6 UV-I 981 W/m 19,3 km/h (3 Bft)
25.05.2010 15:20 18,6 C 47 % 1011,3 hPa 0,0 mm 6,4 km/h (2 Bft) W-NW 292 10 min 6 UV-I 947 W/m 16,1 km/h (3 Bft)
25.05.2010 15:30 18,1 C 47 % 1011,3 hPa 0,0 mm 8,0 km/h (2 Bft) W 270 10 min 6 UV-I 925 W/m 19,3 km/h (3 Bft)
25.05.2010 15:40 18,6 C 46 % 1011,2 hPa 0,0 mm 6,4 km/h (2 Bft) W-NW 292 10 min 6 UV-I 905 W/m 20,9 km/h (4 Bft)
25.05.2010 15:50 19,1 C 43 % 1011,2 hPa 0,0 mm 8,0 km/h (2 Bft) W-NW 292 10 min 5 UV-I 904 W/m 20,9 km/h (4 Bft)
25.05.2010 16:00 18,9 C 45 % 1011,1 hPa 0,0 mm 4,5 km/h (1 Bft) NO 36 10 min 5 UV-I 808 W/m 9,7 km/h (2 Bft)
25.05.2010 16:10 19,1 C 43 % 1008,9 hPa 0,0 mm 6,4 km/h (2 Bft) W-NW 292 10 min 5 UV-I 840 W/m 17,7 km/h (3 Bft)
25.05.2010 16:20 19,1 C 45 % 1010,9 hPa 0,0 mm 6,4 km/h (2 Bft) NW 315 10 min 4 UV-I 795 W/m 17,7 km/h (3 Bft)
25.05.2010 16:30 19,1 C 44 % 1010,9 hPa 0,0 mm 8,0 km/h (2 Bft) W 270 10 min 4 UV-I 780 W/m 20,9 km/h (4 Bft)
25.05.2010 16:40 19,2 C 44 % 1010,8 hPa 0,0 mm 6,4 km/h (2 Bft) W 270 10 min 4 UV-I 765 W/m 19,3 km/h (3 Bft)
25.05.2010 16:50 19,3 C 44 % 1010,8 hPa 0,0 mm 4,8 km/h (1 Bft) W-NW 292 10 min 4 UV-I 756 W/m 17,7 km/h (3 Bft)
25.05.2010 17:00 18,7 C 44 % 1010,6 hPa 0,0 mm 6,4 km/h (2 Bft) NW 315 10 min 3 UV-I 684 W/m 16,1 km/h (3 Bft)
25.05.2010 17:10 19,1 C 43 % 1010,6 hPa 0,0 mm 4,8 km/h (1 Bft) W-NW 292 10 min 3 UV-I 682 W/m 17,7 km/h (3 Bft)
25.05.2010 17:20 19,1 C 44 % 1010,6 hPa 0,0 mm 4,8 km/h (1 Bft) W 270 10 min 3 UV-I 738 W/m 16,1 km/h (3 Bft)
25.05.2010 17:30 19,4 C 44 % 1007,8 hPa 0,0 mm 3,2 km/h (1 Bft) NW 315 10 min 3 UV-I 749 W/m 14,5 km/h (3 Bft)
25.05.2010 17:40 19,1 C 44 % 1010,4 hPa 0,0 mm 4,8 km/h (1 Bft) W 270 10 min 2 UV-I 596 W/m 17,7 km/h (3 Bft)
25.05.2010 17:50 19,1 C 44 % 1007,6 hPa 0,0 mm 1,6 km/h (1 Bft) W-NW 292 10 min 2 UV-I 527 W/m 8,0 km/h (2 Bft)
25.05.2010 18:00 18,7 C 45 % 1010,3 hPa 0,0 mm 6,4 km/h (2 Bft) W-NW 292 10 min 2 UV-I 529 W/m 16,1 km/h (3 Bft)
25.05.2010 18:10 18,6 C 46 % 1010,3 hPa 0,0 mm 4,8 km/h (1 Bft) NW 315 10 min 2 UV-I 534 W/m 12,9 km/h (3 Bft)
25.05.2010 18:20 18,9 C 45 % 1010,2 hPa 0,0 mm 3,2 km/h (1 Bft) N 360 10 min 2 UV-I 473 W/m 9,7 km/h (2 Bft)
25.05.2010 18:30 18,8 C 45 % 1010,2 hPa 0,0 mm 3,2 km/h (1 Bft) N-NW 337 10 min 2 UV-I 448 W/m 9,7 km/h (2 Bft)
25.05.2010 18:40 18,4 C 46 % 1010,3 hPa 0,0 mm 4,8 km/h (1 Bft) W-NW 292 10 min 1 UV-I 434 W/m 16,1 km/h (3 Bft)
25.05.2010 18:50 18,7 C 47 % 1010,3 hPa 0,0 mm 1,6 km/h (1 Bft) N 360 10 min 1 UV-I 399 W/m 9,7 km/h (2 Bft)
25.05.2010 19:00 18,8 C 46 % 1010,3 hPa 0,0 mm 3,2 km/h (1 Bft) N 360 10 min 1 UV-I 346 W/m 17,7 km/h (3 Bft)
25.05.2010 19:10 18,8 C 45 % 1010,2 hPa 0,0 mm 3,2 km/h (1 Bft) N-NO 22 10 min 1 UV-I 322 W/m 11,3 km/h (2 Bft)
25.05.2010 19:20 18,4 C 46 % 1010,2 hPa 0,0 mm 1,6 km/h (1 Bft) W-NW 292 10 min 1 UV-I 264 W/m 8,0 km/h (2 Bft)
25.05.2010 19:30 18,1 C 46 % 1010,1 hPa 0,0 mm 1,6 km/h (1 Bft) N 360 10 min 1 UV-I 260 W/m 11,3 km/h (2 Bft)
25.05.2010 19:40 17,8 C 47 % 1010,0 hPa 0,0 mm 1,6 km/h (1 Bft) N-NO 22 10 min 1 UV-I 183 W/m 8,0 km/h (2 Bft)
25.05.2010 19:50 17,6 C 48 % 1010,0 hPa 0,0 mm 1,6 km/h (1 Bft) N-NO 22 10 min 1 UV-I 186 W/m 9,7 km/h (2 Bft)
25.05.2010 20:00 17,2 C 48 % 1009,9 hPa 0,0 mm 4,8 km/h (1 Bft) N 360 10 min 0 UV-I 167 W/m 16,1 km/h (3 Bft)
25.05.2010 20:10 17,1 C 48 % 1009,9 hPa 0,0 mm 3,2 km/h (1 Bft) N-NO 22 10 min 0 UV-I 158 W/m 9,7 km/h (2 Bft)
25.05.2010 20:20 16,6 C 51 % 1010,0 hPa 0,0 mm 3,2 km/h (1 Bft) N 360 0 min 0 UV-I 74 W/m 14,5 km/h (3 Bft)
25.05.2010 20:30 16,2 C 52 % 1010,1 hPa 0,0 mm 3,2 km/h (1 Bft) N 360 10 min 0 UV-I 70 W/m 14,5 km/h (3 Bft)
25.05.2010 20:40 15,9 C 51 % 1009,9 hPa 0,0 mm 4,8 km/h (1 Bft) N-NO 22 10 min 0 UV-I 70 W/m 11,3 km/h (2 Bft)
25.05.2010 20:50 15,6 C 52 % 1010,0 hPa 0,0 mm 4,8 km/h (1 Bft) N 360 10 min 0 UV-I 37 W/m 16,1 km/h (3 Bft)
25.05.2010 21:00 15,2 C 54 % 1010,0 hPa 0,0 mm 3,2 km/h (1 Bft) N-NO 22 10 min 0 UV-I 28 W/m 19,3 km/h (3 Bft)
25.05.2010 21:10 14,8 C 55 % 1010,2 hPa 0,0 mm 4,8 km/h (1 Bft) N-NO 22 10 min 0 UV-I 23 W/m 16,1 km/h (3 Bft)
25.05.2010 21:20 14,6 C 56 % 1010,2 hPa 0,0 mm 3,2 km/h (1 Bft) N-NO 22 0 min 0 UV-I 14 W/m 11,3 km/h (2 Bft)
25.05.2010 21:30 14,2 C 57 % 1010,3 hPa 0,0 mm 3,2 km/h (1 Bft) N-NO 22 0 min 0 UV-I 7 W/m 11,3 km/h (2 Bft)
25.05.2010 21:40 13,9 C 58 % 1010,4 hPa 0,0 mm 1,6 km/h (1 Bft) N 360 0 min 0 UV-I 5 W/m 9,7 km/h (2 Bft)
25.05.2010 21:50 13,7 C 57 % 1010,7 hPa 0,0 mm 3,2 km/h (1 Bft) N-NO 22 0 min 0 UV-I 0 W/m 14,5 km/h (3 Bft)
25.05.2010 22:00 13,5 C 59 % 1010,7 hPa 0,0 mm 1,6 km/h (1 Bft) N-NO 22 0 min 0 UV-I 0 W/m 9,7 km/h (2 Bft)
25.05.2010 22:10 13,2 C 60 % 1010,7 hPa 0,0 mm 0,0 km/h (0 Bft) N 360 0 min 0 UV-I 0 W/m 8,0 km/h (2 Bft)
25.05.2010 22:20 12,9 C 62 % 1010,8 hPa 0,0 mm 0,0 km/h (0 Bft) N 360 0 min 0 UV-I 0 W/m 3,2 km/h (1 Bft)
25.05.2010 22:30 12,6 C 63 % 1010,8 hPa 0,0 mm 1,6 km/h (1 Bft) O-NO 67 0 min 0 UV-I 0 W/m 4,8 km/h (1 Bft)
25.05.2010 22:40 12,2 C 64 % 1010,8 hPa 0,0 mm 0,0 km/h (0 Bft) O-NO 67 0 min 0 UV-I 0 W/m 1,6 km/h (1 Bft)
25.05.2010 22:50 12,1 C 65 % 1010,9 hPa 0,0 mm 0,0 km/h (0 Bft) O-NO 67 0 min 0 UV-I 0 W/m 1,6 km/h (1 Bft)
25.05.2010 23:00 11,7 C 66 % 1010,8 hPa 0,0 mm 0,0 km/h (0 Bft) O-NO 67 0 min 0 UV-I 0 W/m 3,2 km/h (1 Bft)
25.05.2010 23:10 11,4 C 65 % 1010,8 hPa 0,0 mm 0,0 km/h (0 Bft) N-NO 22 0 min 0 UV-I 0 W/m 6,4 km/h (2 Bft)
25.05.2010 23:20 11,6 C 63 % 1010,8 hPa 0,0 mm 1,6 km/h (1 Bft) NO 45 0 min 0 UV-I 0 W/m 8,0 km/h (2 Bft)
25.05.2010 23:30 11,5 C 64 % 1010,8 hPa 0,0 mm 1,6 km/h (1 Bft) NO 45 0 min 0 UV-I 0 W/m 6,4 km/h (2 Bft)
25.05.2010 23:40 11,4 C 65 % 1010,7 hPa 0,0 mm 1,6 km/h (1 Bft) N-NO 22 0 min 0 UV-I 0 W/m 6,4 km/h (2 Bft)
25.05.2010 23:50 11,2 C 67 % 1010,7 hPa 0,0 mm 0,0 km/h (0 Bft) N-NO 22 0 min 0 UV-I 0 W/m 3,2 km/h (1 Bft)
_ Min-Zeit 23:50 15:50 17:50 - 00:00 - - - - - 00:20
Minimum _ 10,9 C 43 % 1007,6 hPa - 0,0 km/h (0 Bft) - - - - - 1,6 km/h (1 Bft)
_ Max-Zeit 17:30 06:10 11:20 00:00 14:00 - - 07:00 14:00 13:40 14:20
Maximum _ 19,8 C 86 % 1012,1 hPa 0,0 mm 9,7 km/h
W (2 Bft)
- - 10 min 8 UV-I 1118 W/m 27,4 km/h
W (4 Bft)
Durchschnitt _ 14,9 C 64 % 1010,8 hPa #0,0 mm 3,1 km/h (1 Bft) W-NW - #13:30 h 4 UV-I 564 W/m 11,5 km/h (2 Bft)